sensor_id;sensor_type;location;lat;lon;timestamp;P1;durP1;ratioP1;P2;durP2;ratioP2
19985;SDS011;10154;52.474;10.768;2024-02-15T00:02:20;15.47;;;9.83;;
19985;SDS011;10154;52.474;10.768;2024-02-15T00:04:45;14.87;;;8.33;;
19985;SDS011;10154;52.474;10.768;2024-02-15T00:07:11;15.83;;;8.73;;
19985;SDS011;10154;52.474;10.768;2024-02-15T00:09:36;18.80;;;8.90;;
19985;SDS011;10154;52.474;10.768;2024-02-15T00:12:01;14.80;;;8.23;;
19985;SDS011;10154;52.474;10.768;2024-02-15T00:14:27;17.90;;;9.23;;
19985;SDS011;10154;52.474;10.768;2024-02-15T00:16:53;15.73;;;9.13;;
19985;SDS011;10154;52.474;10.768;2024-02-15T00:19:19;14.50;;;9.10;;
19985;SDS011;10154;52.474;10.768;2024-02-15T00:21:46;16.63;;;8.90;;
19985;SDS011;10154;52.474;10.768;2024-02-15T00:24:12;16.33;;;8.77;;
19985;SDS011;10154;52.474;10.768;2024-02-15T00:26:39;14.27;;;8.40;;
19985;SDS011;10154;52.474;10.768;2024-02-15T00:29:05;14.63;;;8.77;;
19985;SDS011;10154;52.474;10.768;2024-02-15T00:31:31;17.33;;;9.00;;
19985;SDS011;10154;52.474;10.768;2024-02-15T00:33:57;15.53;;;9.20;;
19985;SDS011;10154;52.474;10.768;2024-02-15T00:36:23;17.00;;;8.97;;
19985;SDS011;10154;52.474;10.768;2024-02-15T00:38:48;15.00;;;9.07;;
19985;SDS011;10154;52.474;10.768;2024-02-15T00:41:14;17.00;;;9.47;;
19985;SDS011;10154;52.474;10.768;2024-02-15T00:43:39;16.53;;;9.10;;
19985;SDS011;10154;52.474;10.768;2024-02-15T00:46:04;17.17;;;9.40;;
19985;SDS011;10154;52.474;10.768;2024-02-15T00:48:30;15.93;;;9.50;;
19985;SDS011;10154;52.474;10.768;2024-02-15T00:50:56;15.90;;;8.53;;
19985;SDS011;10154;52.474;10.768;2024-02-15T00:53:21;16.10;;;9.37;;
19985;SDS011;10154;52.474;10.768;2024-02-15T00:55:47;16.73;;;9.23;;
19985;SDS011;10154;52.474;10.768;2024-02-15T00:58:12;18.83;;;9.73;;
19985;SDS011;10154;52.474;10.768;2024-02-15T01:00:37;17.10;;;9.10;;
19985;SDS011;10154;52.474;10.768;2024-02-15T01:03:03;17.30;;;9.73;;
19985;SDS011;10154;52.474;10.768;2024-02-15T01:05:29;16.07;;;8.97;;
19985;SDS011;10154;52.474;10.768;2024-02-15T01:07:55;17.10;;;9.33;;
19985;SDS011;10154;52.474;10.768;2024-02-15T01:10:21;16.27;;;9.10;;
19985;SDS011;10154;52.474;10.768;2024-02-15T01:12:49;18.63;;;10.50;;
19985;SDS011;10154;52.474;10.768;2024-02-15T01:15:14;15.60;;;8.97;;
19985;SDS011;10154;52.474;10.768;2024-02-15T01:17:43;17.30;;;8.97;;
19985;SDS011;10154;52.474;10.768;2024-02-15T01:20:08;14.67;;;8.40;;
19985;SDS011;10154;52.474;10.768;2024-02-15T01:22:34;15.57;;;8.97;;
19985;SDS011;10154;52.474;10.768;2024-02-15T01:25:00;15.20;;;8.40;;
19985;SDS011;10154;52.474;10.768;2024-02-15T01:27:25;18.23;;;9.03;;
19985;SDS011;10154;52.474;10.768;2024-02-15T01:29:54;15.20;;;8.90;;
19985;SDS011;10154;52.474;10.768;2024-02-15T01:32:20;16.10;;;8.80;;
19985;SDS011;10154;52.474;10.768;2024-02-15T01:34:45;13.30;;;8.27;;
19985;SDS011;10154;52.474;10.768;2024-02-15T01:37:11;14.83;;;8.60;;
19985;SDS011;10154;52.474;10.768;2024-02-15T01:39:36;12.97;;;8.33;;
19985;SDS011;10154;52.474;10.768;2024-02-15T01:42:02;13.17;;;7.17;;
19985;SDS011;10154;52.474;10.768;2024-02-15T01:44:28;13.13;;;7.77;;
19985;SDS011;10154;52.474;10.768;2024-02-15T01:46:53;16.97;;;8.23;;
19985;SDS011;10154;52.474;10.768;2024-02-15T01:49:20;14.50;;;8.53;;
19985;SDS011;10154;52.474;10.768;2024-02-15T01:51:47;15.67;;;8.10;;
19985;SDS011;10154;52.474;10.768;2024-02-15T01:54:14;16.00;;;8.00;;
19985;SDS011;10154;52.474;10.768;2024-02-15T01:56:41;13.57;;;8.27;;
19985;SDS011;10154;52.474;10.768;2024-02-15T01:59:08;11.37;;;7.57;;
19985;SDS011;10154;52.474;10.768;2024-02-15T02:01:34;13.77;;;7.90;;
19985;SDS011;10154;52.474;10.768;2024-02-15T02:03:59;14.13;;;7.33;;
19985;SDS011;10154;52.474;10.768;2024-02-15T02:06:25;12.30;;;7.20;;
19985;SDS011;10154;52.474;10.768;2024-02-15T02:08:50;12.13;;;7.80;;
19985;SDS011;10154;52.474;10.768;2024-02-15T02:11:16;14.00;;;8.13;;
19985;SDS011;10154;52.474;10.768;2024-02-15T02:13:41;17.10;;;7.97;;
19985;SDS011;10154;52.474;10.768;2024-02-15T02:18:55;13.57;;;7.47;;
19985;SDS011;10154;52.474;10.768;2024-02-15T02:21:23;13.40;;;7.93;;
19985;SDS011;10154;52.474;10.768;2024-02-15T02:23:55;17.20;;;7.87;;
19985;SDS011;10154;52.474;10.768;2024-02-15T02:26:21;13.27;;;7.80;;
19985;SDS011;10154;52.474;10.768;2024-02-15T02:28:48;12.00;;;6.90;;
19985;SDS011;10154;52.474;10.768;2024-02-15T02:31:13;13.10;;;7.30;;
19985;SDS011;10154;52.474;10.768;2024-02-15T02:33:39;13.40;;;7.93;;
19985;SDS011;10154;52.474;10.768;2024-02-15T02:36:05;11.73;;;7.27;;
19985;SDS011;10154;52.474;10.768;2024-02-15T02:38:36;13.80;;;7.87;;
19985;SDS011;10154;52.474;10.768;2024-02-15T02:41:05;14.30;;;7.10;;
19985;SDS011;10154;52.474;10.768;2024-02-15T02:43:31;12.63;;;7.60;;
19985;SDS011;10154;52.474;10.768;2024-02-15T02:45:56;13.27;;;7.20;;
19985;SDS011;10154;52.474;10.768;2024-02-15T02:48:22;11.57;;;7.20;;
19985;SDS011;10154;52.474;10.768;2024-02-15T02:50:48;14.07;;;7.30;;
19985;SDS011;10154;52.474;10.768;2024-02-15T02:53:13;13.50;;;7.53;;
19985;SDS011;10154;52.474;10.768;2024-02-15T02:55:40;11.97;;;7.00;;
19985;SDS011;10154;52.474;10.768;2024-02-15T02:58:06;12.43;;;7.30;;
19985;SDS011;10154;52.474;10.768;2024-02-15T03:00:33;12.70;;;7.37;;
19985;SDS011;10154;52.474;10.768;2024-02-15T03:02:59;13.97;;;7.03;;
19985;SDS011;10154;52.474;10.768;2024-02-15T03:05:25;13.47;;;6.90;;
19985;SDS011;10154;52.474;10.768;2024-02-15T03:07:54;14.13;;;7.90;;
19985;SDS011;10154;52.474;10.768;2024-02-15T03:10:20;11.63;;;7.20;;
19985;SDS011;10154;52.474;10.768;2024-02-15T03:12:45;14.07;;;7.70;;
19985;SDS011;10154;52.474;10.768;2024-02-15T03:15:12;15.23;;;7.33;;
19985;SDS011;10154;52.474;10.768;2024-02-15T03:17:39;14.30;;;8.23;;
19985;SDS011;10154;52.474;10.768;2024-02-15T03:20:08;14.80;;;6.93;;
19985;SDS011;10154;52.474;10.768;2024-02-15T03:22:45;12.33;;;6.63;;
19985;SDS011;10154;52.474;10.768;2024-02-15T03:25:15;12.97;;;6.90;;
19985;SDS011;10154;52.474;10.768;2024-02-15T03:27:40;13.40;;;6.43;;
19985;SDS011;10154;52.474;10.768;2024-02-15T03:30:06;14.23;;;7.53;;
19985;SDS011;10154;52.474;10.768;2024-02-15T03:32:31;13.10;;;7.13;;
19985;SDS011;10154;52.474;10.768;2024-02-15T03:34:57;11.97;;;6.47;;
19985;SDS011;10154;52.474;10.768;2024-02-15T03:37:23;12.93;;;7.30;;
19985;SDS011;10154;52.474;10.768;2024-02-15T03:39:49;10.80;;;6.77;;
19985;SDS011;10154;52.474;10.768;2024-02-15T03:42:14;12.20;;;7.00;;
19985;SDS011;10154;52.474;10.768;2024-02-15T03:44:40;14.30;;;7.40;;
19985;SDS011;10154;52.474;10.768;2024-02-15T03:47:06;13.00;;;7.23;;
19985;SDS011;10154;52.474;10.768;2024-02-15T03:49:32;12.17;;;7.17;;
19985;SDS011;10154;52.474;10.768;2024-02-15T03:51:57;11.10;;;6.60;;
19985;SDS011;10154;52.474;10.768;2024-02-15T03:54:24;13.23;;;6.80;;
19985;SDS011;10154;52.474;10.768;2024-02-15T03:56:50;13.90;;;7.43;;
19985;SDS011;10154;52.474;10.768;2024-02-15T03:59:19;11.43;;;6.57;;
19985;SDS011;10154;52.474;10.768;2024-02-15T04:01:54;9.80;;;5.93;;
19985;SDS011;10154;52.474;10.768;2024-02-15T04:04:20;10.50;;;6.30;;
19985;SDS011;10154;52.474;10.768;2024-02-15T04:06:49;10.23;;;6.07;;
19985;SDS011;10154;52.474;10.768;2024-02-15T04:09:14;10.97;;;6.20;;
19985;SDS011;10154;52.474;10.768;2024-02-15T04:11:40;11.97;;;6.00;;
19985;SDS011;10154;52.474;10.768;2024-02-15T04:14:05;11.57;;;6.60;;
19985;SDS011;10154;52.474;10.768;2024-02-15T04:16:31;11.40;;;6.63;;
19985;SDS011;10154;52.474;10.768;2024-02-15T04:18:58;10.27;;;6.40;;
19985;SDS011;10154;52.474;10.768;2024-02-15T04:21:24;9.30;;;6.00;;
19985;SDS011;10154;52.474;10.768;2024-02-15T04:23:49;10.50;;;6.17;;
19985;SDS011;10154;52.474;10.768;2024-02-15T04:26:16;10.57;;;6.60;;
19985;SDS011;10154;52.474;10.768;2024-02-15T04:28:42;10.13;;;5.90;;
19985;SDS011;10154;52.474;10.768;2024-02-15T04:31:07;9.93;;;5.63;;
19985;SDS011;10154;52.474;10.768;2024-02-15T04:33:34;10.10;;;5.87;;
19985;SDS011;10154;52.474;10.768;2024-02-15T04:35:59;9.10;;;5.73;;
19985;SDS011;10154;52.474;10.768;2024-02-15T04:38:29;9.53;;;5.80;;
19985;SDS011;10154;52.474;10.768;2024-02-15T04:40:54;9.87;;;5.67;;
19985;SDS011;10154;52.474;10.768;2024-02-15T04:43:20;8.43;;;5.53;;
19985;SDS011;10154;52.474;10.768;2024-02-15T04:45:45;9.43;;;6.10;;
19985;SDS011;10154;52.474;10.768;2024-02-15T04:48:11;10.87;;;6.13;;
19985;SDS011;10154;52.474;10.768;2024-02-15T04:50:38;13.07;;;6.60;;
19985;SDS011;10154;52.474;10.768;2024-02-15T04:53:08;12.13;;;6.47;;
19985;SDS011;10154;52.474;10.768;2024-02-15T04:55:34;11.30;;;6.47;;
19985;SDS011;10154;52.474;10.768;2024-02-15T04:58:00;13.80;;;6.53;;
19985;SDS011;10154;52.474;10.768;2024-02-15T05:00:26;11.70;;;6.10;;
19985;SDS011;10154;52.474;10.768;2024-02-15T05:02:52;10.67;;;6.30;;
19985;SDS011;10154;52.474;10.768;2024-02-15T05:05:17;10.50;;;5.70;;
19985;SDS011;10154;52.474;10.768;2024-02-15T05:07:43;10.13;;;5.80;;
19985;SDS011;10154;52.474;10.768;2024-02-15T05:10:09;9.60;;;5.60;;
19985;SDS011;10154;52.474;10.768;2024-02-15T05:12:34;9.33;;;5.57;;
19985;SDS011;10154;52.474;10.768;2024-02-15T05:15:00;9.67;;;5.73;;
19985;SDS011;10154;52.474;10.768;2024-02-15T05:17:25;10.87;;;5.87;;
19985;SDS011;10154;52.474;10.768;2024-02-15T05:19:53;8.93;;;5.30;;
19985;SDS011;10154;52.474;10.768;2024-02-15T05:22:18;11.03;;;5.60;;
19985;SDS011;10154;52.474;10.768;2024-02-15T05:24:44;9.73;;;5.53;;
19985;SDS011;10154;52.474;10.768;2024-02-15T05:27:10;9.93;;;5.80;;
19985;SDS011;10154;52.474;10.768;2024-02-15T05:29:35;7.80;;;5.03;;
19985;SDS011;10154;52.474;10.768;2024-02-15T05:32:01;10.23;;;5.50;;
19985;SDS011;10154;52.474;10.768;2024-02-15T05:34:26;8.43;;;5.17;;
19985;SDS011;10154;52.474;10.768;2024-02-15T05:36:52;10.97;;;5.73;;
19985;SDS011;10154;52.474;10.768;2024-02-15T05:39:17;8.97;;;5.33;;
19985;SDS011;10154;52.474;10.768;2024-02-15T05:41:45;7.43;;;4.83;;
19985;SDS011;10154;52.474;10.768;2024-02-15T05:44:11;8.33;;;4.93;;
19985;SDS011;10154;52.474;10.768;2024-02-15T05:46:36;9.17;;;5.53;;
19985;SDS011;10154;52.474;10.768;2024-02-15T05:49:05;8.87;;;5.13;;
19985;SDS011;10154;52.474;10.768;2024-02-15T05:51:30;6.90;;;4.63;;
19985;SDS011;10154;52.474;10.768;2024-02-15T05:53:57;9.50;;;5.20;;
19985;SDS011;10154;52.474;10.768;2024-02-15T05:56:25;8.33;;;4.70;;
19985;SDS011;10154;52.474;10.768;2024-02-15T05:58:51;6.93;;;4.50;;
19985;SDS011;10154;52.474;10.768;2024-02-15T06:01:17;10.70;;;5.00;;
19985;SDS011;10154;52.474;10.768;2024-02-15T06:03:42;6.80;;;4.50;;
19985;SDS011;10154;52.474;10.768;2024-02-15T06:06:10;7.37;;;4.60;;
19985;SDS011;10154;52.474;10.768;2024-02-15T06:08:36;7.37;;;4.50;;
19985;SDS011;10154;52.474;10.768;2024-02-15T06:11:03;10.03;;;4.87;;
19985;SDS011;10154;52.474;10.768;2024-02-15T06:13:30;6.07;;;4.27;;
19985;SDS011;10154;52.474;10.768;2024-02-15T06:15:56;6.80;;;4.20;;
19985;SDS011;10154;52.474;10.768;2024-02-15T06:18:21;6.70;;;4.37;;
19985;SDS011;10154;52.474;10.768;2024-02-15T06:20:50;8.83;;;4.77;;
19985;SDS011;10154;52.474;10.768;2024-02-15T06:23:19;6.60;;;4.30;;
19985;SDS011;10154;52.474;10.768;2024-02-15T06:25:46;5.57;;;4.17;;
19985;SDS011;10154;52.474;10.768;2024-02-15T06:28:12;6.13;;;4.17;;
19985;SDS011;10154;52.474;10.768;2024-02-15T06:30:44;6.27;;;3.97;;
19985;SDS011;10154;52.474;10.768;2024-02-15T06:33:28;6.50;;;3.73;;
19985;SDS011;10154;52.474;10.768;2024-02-15T06:36:12;6.53;;;4.10;;
19985;SDS011;10154;52.474;10.768;2024-02-15T06:38:56;9.37;;;4.30;;
19985;SDS011;10154;52.474;10.768;2024-02-15T06:41:39;8.83;;;4.10;;
19985;SDS011;10154;52.474;10.768;2024-02-15T06:44:05;7.47;;;4.10;;
19985;SDS011;10154;52.474;10.768;2024-02-15T06:46:30;8.47;;;4.50;;
19985;SDS011;10154;52.474;10.768;2024-02-15T06:48:56;6.50;;;4.30;;
19985;SDS011;10154;52.474;10.768;2024-02-15T06:51:23;7.07;;;3.93;;
19985;SDS011;10154;52.474;10.768;2024-02-15T06:53:49;6.60;;;4.30;;
19985;SDS011;10154;52.474;10.768;2024-02-15T06:56:15;7.47;;;4.63;;
19985;SDS011;10154;52.474;10.768;2024-02-15T06:58:41;8.10;;;4.53;;
19985;SDS011;10154;52.474;10.768;2024-02-15T07:01:06;5.20;;;3.87;;
19985;SDS011;10154;52.474;10.768;2024-02-15T07:03:32;6.10;;;4.17;;
19985;SDS011;10154;52.474;10.768;2024-02-15T07:05:57;6.70;;;4.20;;
19985;SDS011;10154;52.474;10.768;2024-02-15T07:08:23;8.07;;;4.30;;
19985;SDS011;10154;52.474;10.768;2024-02-15T07:10:51;7.03;;;4.67;;
19985;SDS011;10154;52.474;10.768;2024-02-15T07:13:17;8.17;;;4.70;;
19985;SDS011;10154;52.474;10.768;2024-02-15T07:15:43;6.77;;;4.33;;
19985;SDS011;10154;52.474;10.768;2024-02-15T07:18:10;7.33;;;4.57;;
19985;SDS011;10154;52.474;10.768;2024-02-15T07:20:37;6.37;;;4.30;;
19985;SDS011;10154;52.474;10.768;2024-02-15T07:23:02;6.47;;;4.50;;
19985;SDS011;10154;52.474;10.768;2024-02-15T07:25:28;7.20;;;3.93;;
19985;SDS011;10154;52.474;10.768;2024-02-15T07:27:54;6.07;;;4.30;;
19985;SDS011;10154;52.474;10.768;2024-02-15T07:30:19;7.13;;;4.30;;
19985;SDS011;10154;52.474;10.768;2024-02-15T07:32:45;6.17;;;3.97;;
19985;SDS011;10154;52.474;10.768;2024-02-15T07:35:10;7.60;;;3.87;;
19985;SDS011;10154;52.474;10.768;2024-02-15T07:37:36;5.90;;;4.17;;
19985;SDS011;10154;52.474;10.768;2024-02-15T07:40:01;5.77;;;3.87;;
19985;SDS011;10154;52.474;10.768;2024-02-15T07:42:32;5.90;;;4.37;;
19985;SDS011;10154;52.474;10.768;2024-02-15T07:44:59;5.53;;;3.80;;
19985;SDS011;10154;52.474;10.768;2024-02-15T07:47:25;7.37;;;3.80;;
19985;SDS011;10154;52.474;10.768;2024-02-15T07:49:51;5.30;;;3.50;;
19985;SDS011;10154;52.474;10.768;2024-02-15T07:52:17;8.43;;;4.10;;
19985;SDS011;10154;52.474;10.768;2024-02-15T07:54:43;5.93;;;3.90;;
19985;SDS011;10154;52.474;10.768;2024-02-15T07:57:08;6.13;;;3.60;;
19985;SDS011;10154;52.474;10.768;2024-02-15T07:59:34;7.20;;;3.60;;
19985;SDS011;10154;52.474;10.768;2024-02-15T08:02:00;5.83;;;3.70;;
19985;SDS011;10154;52.474;10.768;2024-02-15T08:04:26;6.43;;;4.00;;
19985;SDS011;10154;52.474;10.768;2024-02-15T08:06:51;7.20;;;4.20;;
19985;SDS011;10154;52.474;10.768;2024-02-15T08:09:18;6.73;;;4.13;;
19985;SDS011;10154;52.474;10.768;2024-02-15T08:11:46;8.00;;;3.97;;
19985;SDS011;10154;52.474;10.768;2024-02-15T08:14:12;6.60;;;4.33;;
19985;SDS011;10154;52.474;10.768;2024-02-15T08:16:38;6.77;;;3.97;;
19985;SDS011;10154;52.474;10.768;2024-02-15T08:19:05;7.17;;;4.50;;
19985;SDS011;10154;52.474;10.768;2024-02-15T08:21:32;9.57;;;4.63;;
19985;SDS011;10154;52.474;10.768;2024-02-15T08:23:59;7.20;;;4.57;;
19985;SDS011;10154;52.474;10.768;2024-02-15T08:26:25;9.57;;;4.03;;
19985;SDS011;10154;52.474;10.768;2024-02-15T08:28:51;8.87;;;4.80;;
19985;SDS011;10154;52.474;10.768;2024-02-15T08:31:17;8.47;;;4.37;;
19985;SDS011;10154;52.474;10.768;2024-02-15T08:33:44;10.73;;;4.20;;
19985;SDS011;10154;52.474;10.768;2024-02-15T08:36:10;7.40;;;4.10;;
19985;SDS011;10154;52.474;10.768;2024-02-15T08:38:36;7.60;;;4.23;;
19985;SDS011;10154;52.474;10.768;2024-02-15T08:41:02;10.53;;;4.40;;
19985;SDS011;10154;52.474;10.768;2024-02-15T08:43:29;8.43;;;4.20;;
19985;SDS011;10154;52.474;10.768;2024-02-15T08:45:54;7.37;;;3.40;;
19985;SDS011;10154;52.474;10.768;2024-02-15T08:48:19;7.23;;;3.97;;
19985;SDS011;10154;52.474;10.768;2024-02-15T08:50:47;6.67;;;4.00;;
19985;SDS011;10154;52.474;10.768;2024-02-15T08:53:12;5.33;;;3.30;;
19985;SDS011;10154;52.474;10.768;2024-02-15T08:55:40;7.80;;;3.20;;
19985;SDS011;10154;52.474;10.768;2024-02-15T08:58:05;7.20;;;3.30;;
19985;SDS011;10154;52.474;10.768;2024-02-15T09:00:31;8.37;;;3.10;;
19985;SDS011;10154;52.474;10.768;2024-02-15T09:02:56;6.97;;;3.20;;
19985;SDS011;10154;52.474;10.768;2024-02-15T09:05:22;7.13;;;3.13;;
19985;SDS011;10154;52.474;10.768;2024-02-15T09:07:47;5.77;;;3.03;;
19985;SDS011;10154;52.474;10.768;2024-02-15T09:10:13;6.87;;;2.70;;
19985;SDS011;10154;52.474;10.768;2024-02-15T09:12:40;5.60;;;2.80;;
19985;SDS011;10154;52.474;10.768;2024-02-15T09:15:07;5.07;;;2.67;;
19985;SDS011;10154;52.474;10.768;2024-02-15T09:17:33;6.97;;;2.70;;
19985;SDS011;10154;52.474;10.768;2024-02-15T09:20:04;5.70;;;2.83;;
19985;SDS011;10154;52.474;10.768;2024-02-15T09:22:57;5.47;;;2.73;;
19985;SDS011;10154;52.474;10.768;2024-02-15T09:25:22;6.50;;;2.53;;
19985;SDS011;10154;52.474;10.768;2024-02-15T09:27:48;5.90;;;2.60;;
19985;SDS011;10154;52.474;10.768;2024-02-15T09:30:14;3.90;;;1.90;;
19985;SDS011;10154;52.474;10.768;2024-02-15T09:32:40;5.17;;;2.10;;
19985;SDS011;10154;52.474;10.768;2024-02-15T09:35:06;4.67;;;2.30;;
19985;SDS011;10154;52.474;10.768;2024-02-15T09:37:35;4.17;;;2.00;;
19985;SDS011;10154;52.474;10.768;2024-02-15T09:40:03;6.27;;;2.13;;
19985;SDS011;10154;52.474;10.768;2024-02-15T09:42:32;6.17;;;2.07;;
19985;SDS011;10154;52.474;10.768;2024-02-15T09:44:59;5.27;;;2.10;;
19985;SDS011;10154;52.474;10.768;2024-02-15T09:47:26;7.40;;;2.50;;
19985;SDS011;10154;52.474;10.768;2024-02-15T09:50:06;8.00;;;3.10;;
19985;SDS011;10154;52.474;10.768;2024-02-15T09:52:32;7.30;;;2.40;;
19985;SDS011;10154;52.474;10.768;2024-02-15T09:54:58;7.63;;;2.27;;
19985;SDS011;10154;52.474;10.768;2024-02-15T09:57:26;10.97;;;2.87;;
19985;SDS011;10154;52.474;10.768;2024-02-15T09:59:52;8.53;;;2.60;;
19985;SDS011;10154;52.474;10.768;2024-02-15T10:02:18;4.60;;;2.30;;
19985;SDS011;10154;52.474;10.768;2024-02-15T10:04:44;8.57;;;2.63;;
19985;SDS011;10154;52.474;10.768;2024-02-15T10:07:10;5.60;;;2.50;;
19985;SDS011;10154;52.474;10.768;2024-02-15T10:09:35;6.83;;;2.40;;
19985;SDS011;10154;52.474;10.768;2024-02-15T10:12:05;8.47;;;2.60;;
19985;SDS011;10154;52.474;10.768;2024-02-15T10:14:32;8.17;;;2.60;;
19985;SDS011;10154;52.474;10.768;2024-02-15T10:17:00;7.13;;;2.80;;
19985;SDS011;10154;52.474;10.768;2024-02-15T10:19:31;7.47;;;2.53;;
19985;SDS011;10154;52.474;10.768;2024-02-15T10:22:06;7.53;;;2.43;;
19985;SDS011;10154;52.474;10.768;2024-02-15T10:24:32;6.73;;;2.77;;
19985;SDS011;10154;52.474;10.768;2024-02-15T10:27:01;5.77;;;2.47;;
19985;SDS011;10154;52.474;10.768;2024-02-15T10:29:31;6.20;;;2.20;;
19985;SDS011;10154;52.474;10.768;2024-02-15T10:31:59;4.17;;;2.30;;
19985;SDS011;10154;52.474;10.768;2024-02-15T10:34:25;7.63;;;2.53;;
19985;SDS011;10154;52.474;10.768;2024-02-15T10:36:54;7.10;;;2.53;;
19985;SDS011;10154;52.474;10.768;2024-02-15T10:39:23;9.43;;;2.67;;
19985;SDS011;10154;52.474;10.768;2024-02-15T10:41:50;9.43;;;2.53;;
19985;SDS011;10154;52.474;10.768;2024-02-15T10:44:16;6.37;;;2.30;;
19985;SDS011;10154;52.474;10.768;2024-02-15T10:46:44;7.03;;;2.47;;
19985;SDS011;10154;52.474;10.768;2024-02-15T10:49:10;6.43;;;2.20;;
19985;SDS011;10154;52.474;10.768;2024-02-15T10:51:36;7.73;;;2.47;;
19985;SDS011;10154;52.474;10.768;2024-02-15T10:54:07;8.83;;;2.17;;
19985;SDS011;10154;52.474;10.768;2024-02-15T10:56:43;5.40;;;2.20;;
19985;SDS011;10154;52.474;10.768;2024-02-15T10:59:20;8.37;;;2.30;;
19985;SDS011;10154;52.474;10.768;2024-02-15T11:01:47;6.37;;;2.10;;
19985;SDS011;10154;52.474;10.768;2024-02-15T11:04:18;5.80;;;2.10;;
19985;SDS011;10154;52.474;10.768;2024-02-15T11:06:47;5.63;;;2.20;;
19985;SDS011;10154;52.474;10.768;2024-02-15T11:09:15;5.90;;;1.90;;
19985;SDS011;10154;52.474;10.768;2024-02-15T11:11:41;6.67;;;2.03;;
19985;SDS011;10154;52.474;10.768;2024-02-15T11:16:55;7.23;;;1.97;;
19985;SDS011;10154;52.474;10.768;2024-02-15T11:19:40;18.53;;;2.90;;
19985;SDS011;10154;52.474;10.768;2024-02-15T11:22:09;13.23;;;2.20;;
19985;SDS011;10154;52.474;10.768;2024-02-15T11:24:36;18.67;;;2.77;;
19985;SDS011;10154;52.474;10.768;2024-02-15T11:27:02;19.13;;;2.70;;
19985;SDS011;10154;52.474;10.768;2024-02-15T11:29:57;42.23;;;3.60;;
19985;SDS011;10154;52.474;10.768;2024-02-15T11:35:06;5.77;;;1.87;;
19985;SDS011;10154;52.474;10.768;2024-02-15T11:43:06;5.80;;;1.60;;
19985;SDS011;10154;52.474;10.768;2024-02-15T11:45:31;6.17;;;1.60;;
19985;SDS011;10154;52.474;10.768;2024-02-15T11:48:09;7.47;;;1.70;;
19985;SDS011;10154;52.474;10.768;2024-02-15T11:50:38;23.00;;;2.10;;
19985;SDS011;10154;52.474;10.768;2024-02-15T11:53:07;6.57;;;1.60;;
19985;SDS011;10154;52.474;10.768;2024-02-15T11:55:36;5.57;;;1.43;;
19985;SDS011;10154;52.474;10.768;2024-02-15T11:58:03;5.90;;;1.50;;
19985;SDS011;10154;52.474;10.768;2024-02-15T12:00:35;3.43;;;1.40;;
19985;SDS011;10154;52.474;10.768;2024-02-15T12:03:19;9.30;;;1.20;;
19985;SDS011;10154;52.474;10.768;2024-02-15T12:06:04;7.20;;;1.20;;
19985;SDS011;10154;52.474;10.768;2024-02-15T12:08:48;4.70;;;1.30;;
19985;SDS011;10154;52.474;10.768;2024-02-15T12:11:33;7.33;;;1.43;;
19985;SDS011;10154;52.474;10.768;2024-02-15T12:14:17;5.33;;;1.20;;
19985;SDS011;10154;52.474;10.768;2024-02-15T12:17:02;3.07;;;1.30;;
19985;SDS011;10154;52.474;10.768;2024-02-15T12:19:48;3.70;;;1.30;;
19985;SDS011;10154;52.474;10.768;2024-02-15T12:22:20;3.83;;;1.33;;
19985;SDS011;10154;52.474;10.768;2024-02-15T12:24:54;13.17;;;1.97;;
19985;SDS011;10154;52.474;10.768;2024-02-15T12:27:39;6.13;;;1.43;;
19985;SDS011;10154;52.474;10.768;2024-02-15T12:30:15;4.80;;;1.60;;
19985;SDS011;10154;52.474;10.768;2024-02-15T12:32:47;6.27;;;1.43;;
19985;SDS011;10154;52.474;10.768;2024-02-15T12:35:13;10.23;;;2.23;;
19985;SDS011;10154;52.474;10.768;2024-02-15T12:37:47;13.57;;;2.00;;
19985;SDS011;10154;52.474;10.768;2024-02-15T12:40:16;2.30;;;1.30;;
19985;SDS011;10154;52.474;10.768;2024-02-15T12:42:43;5.43;;;1.40;;
19985;SDS011;10154;52.474;10.768;2024-02-15T12:45:17;8.73;;;1.80;;
19985;SDS011;10154;52.474;10.768;2024-02-15T12:47:50;2.70;;;1.53;;
19985;SDS011;10154;52.474;10.768;2024-02-15T12:50:16;5.17;;;1.57;;
19985;SDS011;10154;52.474;10.768;2024-02-15T12:52:42;5.10;;;1.53;;
19985;SDS011;10154;52.474;10.768;2024-02-15T12:57:39;6.20;;;1.67;;
19985;SDS011;10154;52.474;10.768;2024-02-15T13:00:06;6.03;;;1.80;;
19985;SDS011;10154;52.474;10.768;2024-02-15T13:02:36;5.43;;;1.90;;
19985;SDS011;10154;52.474;10.768;2024-02-15T13:05:03;6.60;;;2.07;;
19985;SDS011;10154;52.474;10.768;2024-02-15T13:07:29;5.43;;;2.03;;
19985;SDS011;10154;52.474;10.768;2024-02-15T13:09:55;10.13;;;2.40;;
19985;SDS011;10154;52.474;10.768;2024-02-15T13:12:20;7.23;;;2.20;;
19985;SDS011;10154;52.474;10.768;2024-02-15T13:14:45;6.93;;;2.03;;
19985;SDS011;10154;52.474;10.768;2024-02-15T13:17:11;13.13;;;2.20;;
19985;SDS011;10154;52.474;10.768;2024-02-15T13:19:36;6.53;;;2.03;;
19985;SDS011;10154;52.474;10.768;2024-02-15T13:22:02;5.70;;;1.80;;
19985;SDS011;10154;52.474;10.768;2024-02-15T13:24:27;8.23;;;2.27;;
19985;SDS011;10154;52.474;10.768;2024-02-15T13:26:52;19.13;;;2.27;;
19985;SDS011;10154;52.474;10.768;2024-02-15T13:29:18;5.63;;;1.67;;
19985;SDS011;10154;52.474;10.768;2024-02-15T13:31:43;7.93;;;1.97;;
19985;SDS011;10154;52.474;10.768;2024-02-15T13:34:08;6.53;;;1.80;;
19985;SDS011;10154;52.474;10.768;2024-02-15T13:36:34;5.80;;;1.70;;
19985;SDS011;10154;52.474;10.768;2024-02-15T13:39:01;8.27;;;1.90;;
19985;SDS011;10154;52.474;10.768;2024-02-15T13:41:29;6.63;;;2.07;;
19985;SDS011;10154;52.474;10.768;2024-02-15T13:43:54;7.80;;;2.23;;
19985;SDS011;10154;52.474;10.768;2024-02-15T13:46:20;5.43;;;2.10;;
19985;SDS011;10154;52.474;10.768;2024-02-15T13:48:45;7.60;;;2.10;;
19985;SDS011;10154;52.474;10.768;2024-02-15T13:51:10;5.60;;;2.13;;
19985;SDS011;10154;52.474;10.768;2024-02-15T13:53:36;4.37;;;2.10;;
19985;SDS011;10154;52.474;10.768;2024-02-15T13:56:02;3.73;;;1.97;;
19985;SDS011;10154;52.474;10.768;2024-02-15T13:58:27;7.50;;;1.93;;
19985;SDS011;10154;52.474;10.768;2024-02-15T14:00:53;5.53;;;1.77;;
19985;SDS011;10154;52.474;10.768;2024-02-15T14:03:18;7.27;;;1.97;;
19985;SDS011;10154;52.474;10.768;2024-02-15T14:05:46;6.17;;;1.70;;
19985;SDS011;10154;52.474;10.768;2024-02-15T14:08:12;5.73;;;1.80;;
19985;SDS011;10154;52.474;10.768;2024-02-15T14:10:38;5.43;;;1.80;;
19985;SDS011;10154;52.474;10.768;2024-02-15T14:13:04;5.03;;;1.73;;
19985;SDS011;10154;52.474;10.768;2024-02-15T14:15:34;6.17;;;1.70;;
19985;SDS011;10154;52.474;10.768;2024-02-15T14:18:02;5.00;;;2.10;;
19985;SDS011;10154;52.474;10.768;2024-02-15T14:20:29;4.70;;;2.20;;
19985;SDS011;10154;52.474;10.768;2024-02-15T14:22:54;7.80;;;3.70;;
19985;SDS011;10154;52.474;10.768;2024-02-15T14:25:25;5.90;;;2.33;;
19985;SDS011;10154;52.474;10.768;2024-02-15T14:27:51;9.33;;;2.50;;
19985;SDS011;10154;52.474;10.768;2024-02-15T14:30:18;3.53;;;1.97;;
19985;SDS011;10154;52.474;10.768;2024-02-15T14:33:03;7.80;;;2.53;;
19985;SDS011;10154;52.474;10.768;2024-02-15T14:35:34;4.13;;;2.47;;
19985;SDS011;10154;52.474;10.768;2024-02-15T14:38:11;5.37;;;2.23;;
19985;SDS011;10154;52.474;10.768;2024-02-15T14:43:07;4.63;;;2.50;;
19985;SDS011;10154;52.474;10.768;2024-02-15T14:45:33;6.27;;;2.10;;
19985;SDS011;10154;52.474;10.768;2024-02-15T14:48:01;8.63;;;2.10;;
19985;SDS011;10154;52.474;10.768;2024-02-15T14:50:28;7.47;;;2.00;;